createdAt,value
2019-03-10T00:01:30.354Z,100579.95
2019-03-10T00:04:00.030Z,100585.23
2019-03-10T00:06:29.801Z,100579.06
2019-03-10T00:08:59.338Z,100583.30
2019-03-10T00:11:28.920Z,100585.05
2019-03-10T00:13:58.484Z,100593.71
2019-03-10T00:16:28.034Z,100597.09
2019-03-10T00:18:57.763Z,100591.07
2019-03-10T00:21:29.183Z,100584.90
2019-03-10T00:24:00.795Z,100573.56
2019-03-10T00:26:30.982Z,100566.27
2019-03-10T00:29:00.936Z,100559.58
2019-03-10T00:31:30.613Z,100553.55
2019-03-10T00:34:02.662Z,100553.88
2019-03-10T00:36:32.398Z,100550.98
2019-03-10T00:39:18.456Z,100543.95
2019-03-10T00:42:26.414Z,100543.39
2019-03-10T00:45:32.047Z,100540.79
2019-03-10T00:48:25.902Z,100533.88
2019-03-10T00:51:10.383Z,100534.03
2019-03-10T00:53:40.083Z,100531.34
2019-03-10T00:56:09.886Z,100532.24
2019-03-10T00:58:40.718Z,100531.87
2019-03-10T01:01:11.337Z,100528.08
2019-03-10T01:03:41.192Z,100527.11
2019-03-10T01:06:11.110Z,100531.87
2019-03-10T01:08:41.033Z,100531.87
2019-03-10T01:11:10.875Z,100527.11
2019-03-10T01:13:40.945Z,100525.85
2019-03-10T01:16:13.677Z,100523.66
2019-03-10T01:18:44.421Z,100516.70
2019-03-10T01:21:14.703Z,100505.31
2019-03-10T01:23:45.221Z,100503.73
2019-03-10T01:26:14.784Z,100498.92
2019-03-10T01:28:44.341Z,100491.56
2019-03-10T01:31:27.456Z,100485.91
2019-03-10T01:34:10.480Z,100474.61
2019-03-10T01:36:40.045Z,100467.77
2019-03-10T01:39:10.711Z,100459.11
2019-03-10T01:41:40.273Z,100450.00
2019-03-10T01:44:09.843Z,100455.57
2019-03-10T01:46:39.390Z,100444.67
2019-03-10T01:49:08.965Z,100442.39
2019-03-10T01:51:39.617Z,100438.48
2019-03-10T01:54:09.133Z,100426.00
2019-03-10T01:56:38.675Z,100420.80
2019-03-10T01:59:08.234Z,100412.05
2019-03-10T02:01:37.773Z,100410.50
2019-03-10T02:04:07.413Z,100398.80
2019-03-10T02:06:36.977Z,100398.27
2019-03-10T02:09:07.054Z,100388.26
2019-03-10T02:11:36.599Z,100380.09
2019-03-10T02:14:06.223Z,100374.39
2019-03-10T02:16:35.802Z,100364.02
2019-03-10T02:19:05.366Z,100355.97
2019-03-10T02:21:34.954Z,100350.81
2019-03-10T02:24:04.544Z,100340.59
2019-03-10T02:26:34.139Z,100338.20
2019-03-10T02:29:03.785Z,100337.14
2019-03-10T02:31:33.361Z,100330.31
2019-03-10T02:34:02.921Z,100330.80
2019-03-10T02:36:32.538Z,100324.53
2019-03-10T02:39:02.096Z,100315.75
2019-03-10T02:41:31.864Z,100312.24
2019-03-10T02:44:01.444Z,100307.94
2019-03-10T02:46:31.009Z,100300.12
2019-03-10T02:49:00.567Z,100291.02
2019-03-10T02:51:30.163Z,100282.23
2019-03-10T02:53:59.702Z,100275.35
2019-03-10T02:56:29.283Z,100267.46
2019-03-10T02:58:58.864Z,100266.73
2019-03-10T03:01:28.412Z,100256.65
2019-03-10T03:03:57.990Z,100249.77
2019-03-10T03:06:27.526Z,100253.36
2019-03-10T03:08:57.086Z,100252.71
2019-03-10T03:11:26.641Z,100247.64
2019-03-10T03:13:56.206Z,100239.96
2019-03-10T03:16:25.772Z,100243.33
2019-03-10T03:18:55.326Z,100227.72
2019-03-10T03:21:24.877Z,100223.05
2019-03-10T03:23:54.446Z,100216.08
2019-03-10T03:26:23.994Z,100215.62
2019-03-10T03:28:53.642Z,100217.78
2019-03-10T03:31:23.199Z,100206.28
2019-03-10T03:33:52.788Z,100207.05
2019-03-10T03:36:27.289Z,100196.37
2019-03-10T03:39:04.773Z,100192.87
2019-03-10T03:41:34.348Z,100174.63
2019-03-10T03:44:03.900Z,100175.80
2019-03-10T03:46:33.534Z,100170.23
2019-03-10T03:49:03.059Z,100166.78
2019-03-10T03:51:32.692Z,100161.26
2019-03-10T03:54:02.242Z,100149.69
2019-03-10T03:56:31.817Z,100149.28
2019-03-10T03:59:01.382Z,100141.61
2019-03-10T04:01:38.086Z,100137.58
2019-03-10T04:04:07.615Z,100135.91
2019-03-10T04:06:37.233Z,100120.31
2019-03-10T04:09:08.760Z,100111.20
2019-03-10T04:11:38.316Z,100105.84
2019-03-10T04:14:07.937Z,100102.02
2019-03-10T04:16:37.490Z,100102.80
2019-03-10T04:19:07.134Z,100094.75
2019-03-10T04:21:36.728Z,100080.58
2019-03-10T04:24:06.329Z,100074.61
2019-03-10T04:26:35.861Z,100073.49
2019-03-10T04:29:05.522Z,100071.31
2019-03-10T04:31:35.107Z,100059.34
2019-03-10T04:34:04.635Z,100055.05
2019-03-10T04:36:34.179Z,100050.52
2019-03-10T04:39:05.051Z,100049.20
2019-03-10T04:41:34.604Z,100043.16
2019-03-10T04:44:04.240Z,100032.40
2019-03-10T04:46:33.816Z,100020.62
2019-03-10T04:49:03.360Z,100008.55
2019-03-10T04:51:32.932Z,100008.16
2019-03-10T04:54:02.474Z,99999.82
2019-03-10T04:56:33.648Z,99996.45
2019-03-10T04:59:03.213Z,99990.86
2019-03-10T05:01:32.798Z,99997.48
2019-03-10T05:04:02.362Z,99992.77
2019-03-10T05:06:31.908Z,99971.13
2019-03-10T05:09:01.473Z,99966.83
2019-03-10T05:11:31.023Z,99955.80
2019-03-10T05:14:00.585Z,99953.20
2019-03-10T05:16:30.337Z,99944.11
2019-03-10T05:18:59.863Z,99935.73
2019-03-10T05:21:29.692Z,99932.52
2019-03-10T05:24:03.336Z,99926.81
2019-03-10T05:26:32.895Z,99913.82
2019-03-10T05:29:02.446Z,99905.94
2019-03-10T05:31:32.028Z,99896.84
2019-03-10T05:34:01.577Z,99896.92
2019-03-10T05:36:31.111Z,99888.55
2019-03-10T05:39:00.678Z,99885.91
2019-03-10T05:41:30.418Z,99878.87
2019-03-10T05:43:59.957Z,99877.13
2019-03-10T05:46:29.505Z,99865.92
2019-03-10T05:48:59.050Z,99861.21
2019-03-10T05:51:28.585Z,99854.72
2019-03-10T05:53:58.148Z,99846.92
2019-03-10T05:56:27.692Z,99838.33
2019-03-10T05:58:57.224Z,99834.66
2019-03-10T06:01:26.783Z,99830.76
2019-03-10T06:03:56.351Z,99814.27
2019-03-10T06:06:25.904Z,99810.67
2019-03-10T06:08:55.463Z,99798.14
2019-03-10T06:11:25.017Z,99790.39
2019-03-10T06:13:54.586Z,99795.59
2019-03-10T06:16:24.145Z,99785.73
2019-03-10T06:18:53.708Z,99786.27
2019-03-10T06:21:23.237Z,99778.48
2019-03-10T06:23:52.837Z,99765.48
2019-03-10T06:26:22.372Z,99749.89
2019-03-10T06:28:51.955Z,99741.70
2019-03-10T06:31:21.542Z,99732.75
2019-03-10T06:33:51.070Z,99718.69
2019-03-10T06:36:20.621Z,99707.99
2019-03-10T06:38:50.168Z,99703.70
2019-03-10T06:41:19.740Z,99696.98
2019-03-10T06:43:49.353Z,99695.38
2019-03-10T06:46:18.900Z,99704.22
2019-03-10T06:48:48.481Z,99704.50
2019-03-10T06:51:18.008Z,99699.93
2019-03-10T06:53:47.585Z,99697.92
2019-03-10T06:56:17.117Z,99695.44
2019-03-10T06:58:46.694Z,99681.70
2019-03-10T07:01:16.262Z,99675.48
2019-03-10T07:03:45.803Z,99668.63
2019-03-10T07:06:15.439Z,99657.45
2019-03-10T07:08:44.987Z,99653.50
2019-03-10T07:11:14.549Z,99646.17
2019-03-10T07:13:44.098Z,99638.83
2019-03-10T07:16:13.667Z,99632.03
2019-03-10T07:18:43.202Z,99617.61
2019-03-10T07:21:12.720Z,99611.97
2019-03-10T07:23:42.280Z,99615.23
2019-03-10T07:26:11.816Z,99605.64
2019-03-10T07:28:49.256Z,99591.06
2019-03-10T07:31:35.077Z,99594.56
2019-03-10T07:34:22.251Z,99590.81
2019-03-10T07:37:09.048Z,99588.30
2019-03-10T07:39:52.161Z,99573.72
2019-03-10T07:42:39.246Z,99561.64
2019-03-10T07:45:23.547Z,99554.70
2019-03-10T07:47:54.784Z,99533.17
2019-03-10T07:50:26.037Z,99519.27
2019-03-10T07:52:57.228Z,99511.88
2019-03-10T07:55:26.550Z,99505.75
2019-03-10T07:58:06.669Z,99492.47
2019-03-10T08:00:37.870Z,99489.81
2019-03-10T08:03:26.820Z,99486.82
2019-03-10T08:06:06.485Z,99483.47
2019-03-10T08:08:37.674Z,99479.03
2019-03-10T08:11:11.648Z,99473.79
2019-03-10T08:13:45.722Z,99469.50
2019-03-10T08:16:33.092Z,99460.87
2019-03-10T08:19:16.720Z,99470.95
2019-03-10T08:22:03.961Z,99462.55
2019-03-10T08:24:51.224Z,99462.10
2019-03-10T08:27:39.137Z,99458.11
2019-03-10T08:30:17.149Z,99453.17
2019-03-10T08:32:49.373Z,99428.87
2019-03-10T08:35:18.739Z,99428.58
2019-03-10T08:38:01.475Z,99427.97
2019-03-10T08:40:35.718Z,99447.13
2019-03-10T08:43:12.987Z,99441.03
2019-03-10T08:45:44.947Z,99437.19
2019-03-10T08:48:25.934Z,99428.10
2019-03-10T08:50:57.332Z,99423.02
2019-03-10T08:53:29.769Z,99413.17
2019-03-10T08:56:06.395Z,99391.19
2019-03-10T08:58:40.653Z,99386.99
2019-03-10T09:01:25.579Z,99410.63
2019-03-10T09:04:14.979Z,99392.03
2019-03-10T09:06:46.199Z,99378.61
2019-03-10T09:09:17.381Z,99373.32
2019-03-10T09:11:50.505Z,99369.42
2019-03-10T09:14:31.729Z,99361.94
2019-03-10T09:17:14.979Z,99365.22
2019-03-10T09:19:46.171Z,99351.44
2019-03-10T09:22:28.834Z,99340.61
2019-03-10T09:25:16.000Z,99343.89
2019-03-10T09:27:47.224Z,99332.34
2019-03-10T09:30:34.270Z,99329.20
2019-03-10T09:33:11.199Z,99316.61
2019-03-10T09:35:46.784Z,99312.45
2019-03-10T09:38:34.240Z,99302.66
2019-03-10T09:41:11.425Z,99299.18
2019-03-10T09:43:58.349Z,99294.24
2019-03-10T09:46:32.352Z,99272.16
2019-03-10T09:49:03.567Z,99280.96
2019-03-10T09:51:40.226Z,99261.99
2019-03-10T09:54:20.871Z,99255.85
2019-03-10T09:56:54.568Z,99241.04
2019-03-10T09:59:25.775Z,99244.45
2019-03-10T10:02:02.695Z,99215.53
2019-03-10T10:04:37.998Z,99226.05
2019-03-10T10:07:09.328Z,99210.63
2019-03-10T10:09:43.978Z,99208.41
2019-03-10T10:12:15.161Z,99206.17
2019-03-10T10:14:48.670Z,99194.13
2019-03-10T10:17:20.007Z,99193.50
2019-03-10T10:19:59.981Z,99188.41
2019-03-10T10:22:34.100Z,99186.77
2019-03-10T10:25:05.573Z,99190.11
2019-03-10T10:27:36.797Z,99179.56
2019-03-10T10:30:12.905Z,99184.59
2019-03-10T10:32:46.779Z,99185.33
2019-03-10T10:35:17.991Z,99182.88
2019-03-10T10:38:04.482Z,99197.72
2019-03-10T10:40:36.887Z,99187.59
2019-03-10T10:43:13.797Z,99174.03
2019-03-10T10:45:43.103Z,99167.81
2019-03-10T10:48:16.763Z,99167.73
2019-03-10T10:51:04.256Z,99171.63
2019-03-10T10:53:45.202Z,99170.34
2019-03-10T10:56:24.261Z,99163.53
2019-03-10T10:59:10.021Z,99157.41
2019-03-10T11:01:41.280Z,99149.20
2019-03-10T11:04:21.405Z,99139.59
2019-03-10T11:07:01.495Z,99141.59
2019-03-10T11:09:30.831Z,99132.24
2019-03-10T11:12:10.829Z,99125.63
2019-03-10T11:14:58.048Z,99129.73
2019-03-10T11:17:31.995Z,99118.71
2019-03-10T11:20:01.543Z,99112.27
2019-03-10T11:22:38.514Z,99108.22
2019-03-10T11:25:21.752Z,99092.80
2019-03-10T11:27:53.090Z,99077.50
2019-03-10T11:30:33.937Z,99077.30
2019-03-10T11:33:05.157Z,99063.53
2019-03-10T11:35:53.522Z,99068.31
2019-03-10T11:38:32.894Z,99052.67
2019-03-10T11:41:33.076Z,99055.34
2019-03-10T11:44:06.606Z,99052.17
2019-03-10T11:46:43.396Z,99043.83
2019-03-10T11:49:30.206Z,99051.00
2019-03-10T11:52:16.520Z,99040.91
2019-03-10T11:54:55.007Z,99031.39
2019-03-10T11:57:28.947Z,99034.47
2019-03-10T12:00:06.118Z,99061.08
2019-03-10T12:02:37.330Z,99059.83
2019-03-10T12:05:26.398Z,99066.00
2019-03-10T12:07:57.587Z,99037.08
2019-03-10T12:10:27.244Z,99039.45
2019-03-10T12:12:57.041Z,99053.38
2019-03-10T12:15:26.619Z,99053.59
2019-03-10T12:17:56.247Z,99060.13
2019-03-10T12:20:25.816Z,99060.17
2019-03-10T12:22:56.330Z,99059.23
2019-03-10T12:25:25.892Z,99049.50
2019-03-10T12:27:55.501Z,99051.42
2019-03-10T12:30:31.748Z,99056.01
2019-03-10T12:33:01.316Z,99055.30
2019-03-10T12:35:34.769Z,99039.86
2019-03-10T12:38:02.171Z,99026.88
2019-03-10T12:40:31.729Z,99054.77
2019-03-10T12:43:01.369Z,99056.20
2019-03-10T12:45:31.017Z,99055.33
2019-03-10T12:48:00.578Z,99072.73
2019-03-10T12:50:30.190Z,99076.07
2019-03-10T12:52:59.761Z,99069.55
2019-03-10T12:55:29.419Z,99059.06
2019-03-10T12:57:58.982Z,99057.72
2019-03-10T13:00:28.626Z,99059.66
2019-03-10T13:02:58.468Z,99051.27
2019-03-10T13:05:30.597Z,99050.02
2019-03-10T13:08:01.316Z,99042.90
2019-03-10T13:10:31.887Z,99037.55
2019-03-10T13:13:02.638Z,99040.36
2019-03-10T13:15:32.287Z,99038.88
2019-03-10T13:18:02.794Z,99042.67
2019-03-10T13:20:34.093Z,99052.05
2019-03-10T13:23:03.899Z,99051.62
2019-03-10T13:25:33.483Z,99061.32
2019-03-10T13:28:03.041Z,99041.80
2019-03-10T13:30:32.632Z,99050.43
2019-03-10T13:33:02.325Z,99043.22
2019-03-10T13:35:31.887Z,99048.00
2019-03-10T13:38:01.442Z,99051.53
2019-03-10T13:40:31.076Z,99054.14
2019-03-10T13:43:00.671Z,99056.20
2019-03-10T13:45:30.223Z,99053.34
2019-03-10T13:48:00.047Z,99034.44
2019-03-10T13:50:29.698Z,99048.75
2019-03-10T13:52:59.382Z,99035.03
2019-03-10T13:55:28.915Z,99063.41
2019-03-10T13:57:58.496Z,99072.58
2019-03-10T14:00:28.034Z,99063.73
2019-03-10T14:02:58.748Z,99073.30
2019-03-10T14:05:28.321Z,99078.22
2019-03-10T14:15:38.646Z,99108.45
2019-03-10T14:18:08.622Z,99157.72
2019-03-10T14:20:38.158Z,99112.54
2019-03-10T14:23:08.900Z,99133.13
2019-03-10T14:25:47.869Z,99150.38
2019-03-10T14:28:22.080Z,99155.76
2019-03-10T14:30:51.739Z,99165.80
2019-03-10T14:33:21.503Z,99179.86
2019-03-10T14:35:51.050Z,99177.78
2019-03-10T14:38:20.795Z,99179.87
2019-03-10T14:40:50.362Z,99193.28
2019-03-10T14:43:19.987Z,99231.60
2019-03-10T14:45:49.579Z,99221.12
2019-03-10T14:48:19.181Z,99250.68
2019-03-10T14:50:48.701Z,99262.06
2019-03-10T14:53:18.292Z,99248.47
2019-03-10T14:55:47.887Z,99282.87
2019-03-10T14:58:17.405Z,99275.16
2019-03-10T15:00:46.981Z,99280.09
2019-03-10T15:03:16.528Z,99297.40
2019-03-10T15:05:46.084Z,99300.94
2019-03-10T15:08:15.598Z,99304.19
2019-03-10T15:10:45.236Z,99311.20
2019-03-10T15:13:14.771Z,99302.08
2019-03-10T15:15:44.342Z,99321.33
2019-03-10T15:18:13.966Z,99337.98
2019-03-10T15:20:43.521Z,99328.27
2019-03-10T15:23:13.081Z,99360.64
2019-03-10T15:25:42.675Z,99341.78
2019-03-10T15:28:12.355Z,99364.62
2019-03-10T15:30:41.956Z,99365.54
2019-03-10T15:33:11.487Z,99377.08
2019-03-10T15:35:41.126Z,99384.78
2019-03-10T15:38:10.796Z,99396.55
2019-03-10T15:40:40.390Z,99398.34
2019-03-10T15:43:13.943Z,99428.34
2019-03-10T15:45:43.537Z,99412.95
2019-03-10T15:48:13.081Z,99417.48
2019-03-10T15:50:46.988Z,99429.47
2019-03-10T15:53:16.643Z,99427.03
2019-03-10T15:55:46.289Z,99456.74
2019-03-10T15:58:15.856Z,99451.92
2019-03-10T16:00:45.405Z,99464.72
2019-03-10T16:03:14.964Z,99497.34
2019-03-10T16:05:44.534Z,99477.38
2019-03-10T16:08:14.345Z,99516.02
2019-03-10T16:10:45.175Z,99533.35
2019-03-10T16:13:14.785Z,99553.51
2019-03-10T16:15:44.371Z,99594.80
2019-03-10T16:18:13.987Z,99588.84
2019-03-10T16:20:43.519Z,99602.27
2019-03-10T16:23:13.215Z,99613.73
2019-03-10T16:25:42.766Z,99611.38
2019-03-10T16:28:12.553Z,99644.28
2019-03-10T16:30:42.186Z,99675.56
2019-03-10T16:33:11.699Z,99720.30
2019-03-10T16:35:41.243Z,99748.87
2019-03-10T16:38:10.780Z,99783.78
2019-03-10T16:40:40.330Z,99789.89
2019-03-10T16:43:09.874Z,99809.42
2019-03-10T16:45:39.410Z,99852.30
2019-03-10T16:48:08.954Z,99887.70
2019-03-10T16:50:38.678Z,99896.84
2019-03-10T16:53:08.247Z,99910.34
2019-03-10T16:55:37.934Z,99931.41
2019-03-10T16:58:07.538Z,99932.86
2019-03-10T17:00:37.683Z,99944.89
2019-03-10T17:03:11.766Z,99944.14
2019-03-10T17:05:48.103Z,99984.65
2019-03-10T17:08:17.840Z,99984.23
2019-03-10T17:10:47.412Z,100003.37
2019-03-10T17:13:17.037Z,100018.02
2019-03-10T17:15:46.646Z,100002.70
2019-03-10T17:18:16.270Z,100043.20
2019-03-10T17:20:45.901Z,100039.50
2019-03-10T17:23:15.446Z,100057.50
2019-03-10T17:25:45.153Z,100068.03
2019-03-10T17:28:14.719Z,100077.70
2019-03-10T17:30:44.693Z,100082.13
2019-03-10T17:33:14.239Z,100090.28
2019-03-10T17:35:43.840Z,100104.94
2019-03-10T17:38:13.420Z,100114.20
2019-03-10T17:40:42.937Z,100117.74
2019-03-10T17:43:12.490Z,100130.15
2019-03-10T17:45:42.444Z,100144.77
2019-03-10T17:48:13.189Z,100145.98
2019-03-10T17:50:43.224Z,100157.44
2019-03-10T17:53:12.813Z,100169.79
2019-03-10T17:55:42.341Z,100173.70
2019-03-10T17:58:11.971Z,100177.65
2019-03-10T18:00:41.520Z,100187.78
2019-03-10T18:03:11.051Z,100196.66
2019-03-10T18:05:42.552Z,100198.96
2019-03-10T18:08:14.179Z,100198.81
2019-03-10T18:10:43.770Z,100208.91
2019-03-10T18:13:13.295Z,100210.53
2019-03-10T18:15:42.928Z,100219.94
2019-03-10T18:18:12.469Z,100214.50
2019-03-10T18:20:42.010Z,100220.84
2019-03-10T18:23:11.569Z,100223.14
2019-03-10T18:25:41.097Z,100226.17
2019-03-10T18:28:10.652Z,100226.34
2019-03-10T18:30:41.133Z,100232.57
2019-03-10T18:33:11.042Z,100236.90
2019-03-10T18:35:40.576Z,100237.28
2019-03-10T18:38:10.120Z,100248.00
2019-03-10T18:40:39.671Z,100243.59
2019-03-10T18:43:09.257Z,100253.88
2019-03-10T18:45:38.810Z,100255.44
2019-03-10T18:48:08.375Z,100255.44
2019-03-10T18:50:37.996Z,100247.98
2019-03-10T18:53:07.547Z,100249.47
2019-03-10T18:55:37.138Z,100265.95
2019-03-10T18:58:06.734Z,100270.27
2019-03-10T19:00:36.320Z,100263.19
2019-03-10T19:04:06.085Z,100268.30
2019-03-10T19:06:35.715Z,100280.45
2019-03-10T19:09:07.180Z,100292.84
2019-03-10T19:11:36.731Z,100311.25
2019-03-10T19:14:07.379Z,100322.70
2019-03-10T19:16:36.942Z,100338.70
2019-03-10T19:19:06.817Z,100369.41
2019-03-10T19:21:36.354Z,100341.52
2019-03-10T19:24:06.292Z,100342.63
2019-03-10T19:26:36.339Z,100348.73
2019-03-10T19:29:06.473Z,100336.50
2019-03-10T19:31:36.692Z,100354.80
2019-03-10T19:34:07.141Z,100361.52
2019-03-10T19:36:39.121Z,100365.27
2019-03-10T19:39:09.306Z,100385.73
2019-03-10T19:41:39.411Z,100391.20
2019-03-10T19:44:10.188Z,100403.41
2019-03-10T19:46:40.087Z,100410.91
2019-03-10T19:49:10.629Z,100409.47
2019-03-10T19:51:40.943Z,100420.89
2019-03-10T19:54:11.432Z,100433.70
2019-03-10T19:56:42.569Z,100430.09
2019-03-10T19:59:12.423Z,100436.03
2019-03-10T20:01:43.960Z,100450.04
2019-03-10T20:04:14.007Z,100437.13
2019-03-10T20:06:44.102Z,100441.42
2019-03-10T20:09:14.265Z,100445.18
2019-03-10T20:11:44.562Z,100447.72
2019-03-10T20:14:14.884Z,100441.56
2019-03-10T20:16:44.772Z,100457.52
2019-03-10T20:19:16.320Z,100463.41
2019-03-10T20:21:46.368Z,100449.11
2019-03-10T20:24:16.379Z,100460.02
2019-03-10T20:26:46.744Z,100448.70
2019-03-10T20:29:16.699Z,100446.38
2019-03-10T20:31:46.818Z,100455.81
2019-03-10T20:34:16.817Z,100455.59
2019-03-10T20:36:46.791Z,100463.28
2019-03-10T20:39:18.599Z,100467.08
2019-03-10T20:41:48.597Z,100483.40
2019-03-10T20:44:18.667Z,100497.64
2019-03-10T20:46:48.594Z,100524.19
2019-03-10T20:49:18.640Z,100530.86
2019-03-10T20:51:48.414Z,100536.94
2019-03-10T20:54:18.458Z,100528.04
2019-03-10T20:56:48.602Z,100500.15
2019-03-10T20:59:18.567Z,100474.17
2019-03-10T21:01:48.642Z,100481.19
2019-03-10T21:04:18.357Z,100495.78
2019-03-10T21:06:49.375Z,100497.91
2019-03-10T21:09:18.957Z,100496.77
2019-03-10T21:11:48.577Z,100506.05
2019-03-10T21:14:18.588Z,100502.98
2019-03-10T21:16:48.117Z,100489.57
2019-03-10T21:19:17.701Z,100503.84
2019-03-10T21:21:47.661Z,100507.41
2019-03-10T21:24:17.789Z,100507.23
2019-03-10T21:26:47.654Z,100501.00
2019-03-10T21:29:17.430Z,100510.56
2019-03-10T21:31:47.694Z,100524.84
2019-03-10T21:34:17.340Z,100518.86
2019-03-10T21:36:46.897Z,100530.44
2019-03-10T21:39:16.908Z,100526.75
2019-03-10T21:41:46.968Z,100550.17
2019-03-10T21:44:26.109Z,100535.48
2019-03-10T21:46:49.907Z,100527.23
2019-03-10T21:49:20.148Z,100538.98
2019-03-10T21:51:50.263Z,100550.69
2019-03-10T21:54:20.107Z,100544.33
2019-03-10T21:56:49.686Z,100548.69
2019-03-10T21:59:19.286Z,100549.37
2019-03-10T22:01:49.199Z,100557.12
2019-03-10T22:04:18.766Z,100555.42
2019-03-10T22:06:48.863Z,100559.73
2019-03-10T22:09:18.958Z,100564.90
2019-03-10T22:11:48.880Z,100552.19
2019-03-10T22:14:18.688Z,100558.17
2019-03-10T22:16:49.440Z,100557.38
2019-03-10T22:19:22.873Z,100555.33
2019-03-10T22:21:50.986Z,100552.42
2019-03-10T22:24:21.079Z,100562.81
2019-03-10T22:26:51.219Z,100569.66
2019-03-10T22:29:21.302Z,100583.92
2019-03-10T22:31:51.293Z,100584.34
2019-03-10T22:34:22.177Z,100595.31
2019-03-10T22:36:52.150Z,100599.56
2019-03-10T22:39:22.119Z,100588.64
2019-03-10T22:41:51.789Z,100585.63
2019-03-10T22:44:21.741Z,100588.70
2019-03-10T22:46:51.693Z,100581.70
2019-03-10T22:49:21.714Z,100578.10
2019-03-10T22:51:51.702Z,100572.56
2019-03-10T22:54:21.764Z,100573.41
2019-03-10T22:56:51.617Z,100574.70
2019-03-10T22:59:21.753Z,100569.86
2019-03-10T23:01:51.494Z,100569.42
2019-03-10T23:04:21.431Z,100569.00
2019-03-10T23:06:51.293Z,100573.19
2019-03-10T23:09:20.852Z,100570.67
2019-03-10T23:11:50.666Z,100568.45
2019-03-10T23:14:20.184Z,100566.25
2019-03-10T23:16:52.247Z,100557.30
2019-03-10T23:19:21.053Z,100549.56
2019-03-10T23:21:50.589Z,100543.89
2019-03-10T23:24:20.134Z,100543.46
2019-03-10T23:26:49.660Z,100533.62
2019-03-10T23:29:19.213Z,100526.30
2019-03-10T23:31:48.749Z,100526.72
2019-03-10T23:34:18.292Z,100523.66
2019-03-10T23:36:47.838Z,100521.49
2019-03-10T23:39:17.383Z,100514.55
2019-03-10T23:41:46.910Z,100521.01
2019-03-10T23:44:16.454Z,100516.71
2019-03-10T23:46:45.979Z,100518.91
2019-03-10T23:49:15.543Z,100508.52
2019-03-10T23:51:45.107Z,100514.11
2019-03-10T23:54:14.647Z,100509.75
2019-03-10T23:56:44.192Z,100509.27
2019-03-10T23:59:13.751Z,100516.10
